Time;durP1;ratioP1;P1;durP2;ratioP2;P2;SDS_P1;SDS_P2;PMS_P1;PMS_P2;Temp;Humidity;BMP_temperature;BMP_pressure;BME280_temperature;BME280_humidity;BME280_pressure;Samples;Min_cycle;Max_cycle;Signal;HPM_P1;HPM_P2
2021/10/11 00:00:24;;;;;;;128.73;68.77;;;11.10;99.50;;;;;;8336540;28;20447;-78
2021/10/11 00:04:25;;;;;;;134.03;65.10;;;10.90;99.10;;;;;;8332597;28;20228;-77
2021/10/11 00:08:26;;;;;;;133.37;69.50;;;10.80;99.00;;;;;;8348101;28;20211;-77
2021/10/11 00:12:26;;;;;;;134.87;67.70;;;10.60;98.90;;;;;;8332783;28;20410;-78
2021/10/11 00:16:27;;;;;;;140.77;66.13;;;10.50;98.80;;;;;;8333763;28;20172;-77
2021/10/11 00:20:28;;;;;;;139.97;65.50;;;10.40;98.80;;;;;;8336029;28;20187;-78
2021/10/11 00:24:28;;;;;;;137.40;66.77;;;10.20;98.80;;;;;;8337051;28;20211;-78
2021/10/11 00:28:29;;;;;;;139.93;65.77;;;10.10;98.80;;;;;;8343834;28;20176;-77
2021/10/11 00:32:29;;;;;;;139.50;69.90;;;10.10;98.90;;;;;;8336227;28;20219;-77
2021/10/11 00:36:30;;;;;;;134.10;70.37;;;10.00;99.00;;;;;;8336459;28;20243;-77
2021/10/11 00:40:31;;;;;;;170.10;79.50;;;10.00;99.20;;;;;;8336688;28;20214;-77
2021/10/11 00:44:31;;;;;;;162.57;77.67;;;10.10;99.50;;;;;;8336270;28;20179;-77
2021/10/11 00:48:32;;;;;;;197.43;93.03;;;10.20;99.90;;;;;;8336625;28;20176;-78
2021/10/11 00:52:33;;;;;;;221.03;97.27;;;10.30;99.90;;;;;;8336643;28;20230;-77
2021/10/11 00:56:34;;;;;;;252.00;110.60;;;10.50;99.90;;;;;;8336192;28;20184;-77
2021/10/11 01:00:34;;;;;;;241.40;107.27;;;10.70;99.90;;;;;;8335229;28;20180;-77
2021/10/11 01:04:35;;;;;;;209.03;98.43;;;10.90;99.90;;;;;;8509078;22;20499;-77
2021/10/11 01:08:36;;;;;;;159.60;79.27;;;11.10;99.90;;;;;;8255495;28;20182;-78
2021/10/11 01:12:37;;;;;;;130.20;65.50;;;11.30;99.90;;;;;;8270876;28;20205;-77
2021/10/11 01:16:37;;;;;;;138.43;70.50;;;11.40;99.90;;;;;;8268091;28;20185;-77
2021/10/11 01:20:38;;;;;;;132.07;65.70;;;11.50;99.90;;;;;;8269007;28;20216;-77
2021/10/11 01:24:39;;;;;;;123.27;63.93;;;11.50;99.90;;;;;;8269362;28;20181;-77
2021/10/11 01:28:39;;;;;;;119.73;58.00;;;11.50;99.90;;;;;;8270281;28;20173;-77
2021/10/11 01:32:42;;;;;;;106.93;59.27;;;11.50;99.90;;;;;;8268828;28;20626;-77
2021/10/11 01:36:42;;;;;;;121.53;63.57;;;11.40;99.90;;;;;;8288147;28;20536;-77
2021/10/11 01:40:43;;;;;;;133.10;66.17;;;11.40;99.90;;;;;;8263660;28;20440;-77
2021/10/11 01:44:44;;;;;;;118.03;61.67;;;11.40;99.90;;;;;;8269534;28;20629;-77
2021/10/11 01:48:45;;;;;;;129.43;66.20;;;11.40;99.90;;;;;;8268893;28;20204;-77
2021/10/11 01:52:45;;;;;;;124.37;64.13;;;11.40;99.80;;;;;;8268174;28;20204;-77
2021/10/11 01:56:46;;;;;;;130.23;62.77;;;11.40;99.80;;;;;;8269689;28;20431;-77
2021/10/11 02:00:47;;;;;;;129.47;66.13;;;11.40;99.90;;;;;;8267987;28;20253;-77
2021/10/11 02:04:47;;;;;;;139.37;69.47;;;11.40;99.90;;;;;;8269701;28;20240;-77
2021/10/11 02:08:48;;;;;;;130.30;66.70;;;11.40;99.90;;;;;;8269208;28;20174;-77
2021/10/11 02:12:49;;;;;;;148.37;72.23;;;11.40;99.90;;;;;;8269705;28;20278;-77
2021/10/11 02:16:50;;;;;;;120.17;60.93;;;11.40;99.90;;;;;;8268693;28;21007;-77
2021/10/11 02:20:50;;;;;;;131.03;62.73;;;11.40;99.90;;;;;;8267321;28;20208;-77
2021/10/11 02:24:51;;;;;;;129.47;66.67;;;11.40;99.90;;;;;;8269131;28;20502;-78
2021/10/11 02:28:51;;;;;;;135.43;63.90;;;11.50;99.90;;;;;;8269200;28;20205;-77
2021/10/11 02:32:52;;;;;;;127.33;68.53;;;11.50;99.90;;;;;;8268632;28;20282;-77
2021/10/11 02:36:53;;;;;;;129.27;69.40;;;11.50;99.90;;;;;;8269197;28;20184;-77
2021/10/11 02:40:53;;;;;;;137.90;69.00;;;11.60;99.90;;;;;;8266650;28;20304;-77
2021/10/11 02:44:54;;;;;;;136.90;69.87;;;11.70;99.90;;;;;;8267624;28;20552;-77
2021/10/11 02:48:54;;;;;;;160.43;77.03;;;11.80;99.90;;;;;;8267515;28;20173;-76
2021/10/11 02:52:55;;;;;;;160.30;76.90;;;11.90;99.90;;;;;;8267983;28;20202;-77
2021/10/11 02:56:56;;;;;;;155.60;71.23;;;12.00;99.90;;;;;;8268609;28;20173;-77
2021/10/11 03:00:56;;;;;;;142.20;70.90;;;12.20;99.90;;;;;;8266672;28;20290;-77
2021/10/11 03:04:57;;;;;;;130.53;60.77;;;12.20;99.90;;;;;;8276191;28;20251;-77
2021/10/11 03:08:58;;;;;;;123.17;62.97;;;12.30;99.90;;;;;;8286599;28;20642;-77
2021/10/11 03:12:58;;;;;;;109.67;57.00;;;12.40;99.90;;;;;;8285960;28;20214;-77
2021/10/11 03:16:59;;;;;;;122.63;60.20;;;12.40;99.90;;;;;;8282428;28;20261;-77
2021/10/11 03:21:00;;;;;;;115.10;59.47;;;12.40;99.90;;;;;;8288486;28;20183;-78
2021/10/11 03:25:00;;;;;;;114.13;58.33;;;12.40;99.90;;;;;;8273202;28;20579;-78
2021/10/11 03:29:01;;;;;;;132.57;62.67;;;12.50;99.90;;;;;;8271012;28;20184;-78
2021/10/11 03:33:01;;;;;;;118.60;61.70;;;12.50;99.90;;;;;;8272987;28;20225;-78
2021/10/11 03:37:02;;;;;;;129.77;63.43;;;12.50;99.90;;;;;;8273824;28;20207;-78
2021/10/11 03:41:03;;;;;;;114.33;61.63;;;12.50;99.90;;;;;;8271229;28;20190;-78
2021/10/11 03:45:04;;;;;;;114.00;60.73;;;12.50;99.90;;;;;;8268258;28;20188;-77
2021/10/11 03:49:05;;;;;;;131.83;62.47;;;12.50;99.90;;;;;;8267653;28;20205;-77
2021/10/11 03:53:05;;;;;;;137.77;66.47;;;12.50;99.90;;;;;;8271195;28;20484;-77
2021/10/11 03:57:06;;;;;;;140.93;69.03;;;12.50;99.90;;;;;;8274661;28;20638;-77
2021/10/11 04:01:07;;;;;;;151.37;67.50;;;12.60;99.90;;;;;;8271419;28;20181;-78
2021/10/11 04:05:08;;;;;;;133.90;68.70;;;12.50;99.90;;;;;;8272867;28;20226;-78
2021/10/11 04:09:08;;;;;;;137.50;71.40;;;12.60;99.90;;;;;;8272888;28;20198;-77
2021/10/11 04:13:09;;;;;;;146.00;69.57;;;12.60;99.90;;;;;;8268923;28;20465;-77
2021/10/11 04:17:10;;;;;;;125.57;65.60;;;12.70;99.90;;;;;;8240668;28;20192;-77
2021/10/11 04:21:11;;;;;;;145.57;70.63;;;12.70;99.90;;;;;;8239725;28;20271;-77
2021/10/11 04:25:12;;;;;;;160.17;76.27;;;12.70;99.90;;;;;;8271979;28;20443;-77
2021/10/11 04:29:12;;;;;;;182.37;84.03;;;12.70;99.90;;;;;;8271249;28;20184;-77
2021/10/11 04:33:14;;;;;;;202.00;92.37;;;12.70;99.90;;;;;;8271310;28;20216;-77
2021/10/11 04:37:15;;;;;;;209.67;93.57;;;12.70;99.90;;;;;;8271644;28;20611;-77
2021/10/11 04:41:15;;;;;;;227.53;97.23;;;12.70;99.90;;;;;;8269655;28;20483;-77
2021/10/11 04:45:16;;;;;;;211.70;91.47;;;12.80;99.90;;;;;;8269218;28;20184;-78
2021/10/11 04:49:16;;;;;;;220.13;89.77;;;12.90;99.90;;;;;;8269784;28;20190;-77
2021/10/11 04:53:17;;;;;;;223.83;89.83;;;13.00;99.90;;;;;;8269709;28;20202;-77
2021/10/11 04:57:17;;;;;;;204.17;85.57;;;13.00;99.90;;;;;;8268389;28;20180;-77
2021/10/11 05:01:20;;;;;;;191.93;79.47;;;13.10;99.90;;;;;;8270789;28;20181;-78
2021/10/11 05:05:21;;;;;;;171.77;70.47;;;13.10;99.90;;;;;;8271925;28;20555;-78
2021/10/11 05:09:21;;;;;;;176.10;72.03;;;13.20;99.90;;;;;;8272975;28;20476;-77
2021/10/11 05:13:22;;;;;;;176.77;74.70;;;13.20;99.90;;;;;;8272920;28;20218;-77
2021/10/11 05:17:22;;;;;;;160.47;67.83;;;13.30;99.90;;;;;;8273912;28;20533;-78
2021/10/11 05:21:23;;;;;;;153.77;69.30;;;13.30;99.90;;;;;;8275242;28;20184;-78
2021/10/11 05:25:27;;;;;;;161.93;65.80;;;13.30;99.90;;;;;;8272528;28;20254;-78
2021/10/11 05:29:28;;;;;;;166.03;68.43;;;13.40;99.90;;;;;;8273855;28;20235;-77
2021/10/11 05:33:28;;;;;;;189.53;72.93;;;13.40;99.90;;;;;;8273090;28;21010;-78
2021/10/11 05:37:29;;;;;;;187.33;75.57;;;13.40;99.90;;;;;;8273339;28;20180;-78
2021/10/11 05:41:30;;;;;;;187.70;75.77;;;13.40;99.90;;;;;;8269500;28;20247;-76
2021/10/11 05:45:31;;;;;;;211.30;79.70;;;13.50;99.90;;;;;;8268071;28;20419;-76
2021/10/11 05:49:32;;;;;;;190.60;75.30;;;13.50;99.90;;;;;;8267454;28;20181;-77
2021/10/11 05:53:32;;;;;;;170.83;68.97;;;13.50;99.90;;;;;;8266148;28;20213;-77
2021/10/11 05:57:33;;;;;;;187.67;80.53;;;13.60;99.90;;;;;;8268128;28;20452;-77
2021/10/11 06:01:34;;;;;;;202.63;76.50;;;13.60;99.90;;;;;;8268058;28;20180;-77
2021/10/11 06:05:34;;;;;;;202.67;73.07;;;13.60;99.90;;;;;;8267338;28;20232;-77
2021/10/11 06:09:35;;;;;;;190.47;72.20;;;13.60;99.90;;;;;;8267831;28;20186;-77
2021/10/11 06:13:36;;;;;;;186.37;74.33;;;13.60;99.90;;;;;;8268185;28;20220;-77
2021/10/11 06:17:36;;;;;;;203.43;73.47;;;13.60;99.90;;;;;;8282855;28;20188;-77
2021/10/11 06:21:37;;;;;;;209.63;79.90;;;13.60;99.90;;;;;;8272968;28;20495;-77
2021/10/11 06:25:38;;;;;;;231.03;81.10;;;13.60;99.90;;;;;;8274204;28;20211;-78
2021/10/11 06:29:38;;;;;;;187.03;73.60;;;13.60;99.90;;;;;;8275937;28;20226;-78
2021/10/11 06:33:39;;;;;;;221.43;77.53;;;13.60;99.90;;;;;;8278038;28;20695;-78
2021/10/11 06:37:40;;;;;;;203.27;74.37;;;13.70;99.90;;;;;;8283081;28;20175;-78
2021/10/11 06:41:41;;;;;;;192.40;69.27;;;13.70;99.90;;;;;;8278198;28;20177;-78
2021/10/11 06:45:41;;;;;;;216.50;75.03;;;13.70;99.90;;;;;;8276127;28;20203;-78
2021/10/11 06:49:44;;;;;;;175.93;64.97;;;13.80;99.90;;;;;;8273475;28;20957;-77
2021/10/11 06:53:45;;;;;;;173.00;61.80;;;13.80;99.90;;;;;;8267045;28;20250;-78
2021/10/11 06:57:46;;;;;;;211.93;72.17;;;13.80;99.90;;;;;;8268707;28;20440;-77
2021/10/11 07:01:46;;;;;;;179.27;64.13;;;13.90;99.90;;;;;;8268784;28;20272;-78
2021/10/11 07:05:47;;;;;;;156.03;55.43;;;13.90;99.90;;;;;;8268787;28;20225;-76
2021/10/11 07:09:48;;;;;;;137.57;58.37;;;14.00;99.90;;;;;;8273758;28;20182;-77
2021/10/11 07:13:49;;;;;;;127.37;52.77;;;14.00;99.90;;;;;;8273167;28;20452;-79
2021/10/11 07:17:50;;;;;;;133.63;53.40;;;14.00;99.90;;;;;;8272196;28;20248;-78
2021/10/11 07:21:52;;;;;;;120.73;53.33;;;14.00;99.90;;;;;;8284071;28;20873;-76
2021/10/11 07:25:53;;;;;;;123.43;54.10;;;14.00;99.90;;;;;;8276573;28;20179;-77
2021/10/11 07:29:53;;;;;;;128.97;50.23;;;14.10;99.90;;;;;;8278951;28;20479;-76
2021/10/11 07:33:54;;;;;;;118.03;47.97;;;14.00;99.90;;;;;;8283475;28;20211;-80
2021/10/11 07:37:55;;;;;;;100.10;47.53;;;14.10;99.90;;;;;;8280221;28;20277;-79
2021/10/11 07:41:55;;;;;;;96.77;46.53;;;14.10;99.90;;;;;;8274909;28;20176;-79
2021/10/11 07:46:02;;;;;;;70.07;35.57;;;14.20;99.90;;;;;;8275444;28;20181;-79
2021/10/11 07:50:04;;;;;;;81.17;38.37;;;14.30;99.90;;;;;;8274298;28;20543;-77
2021/10/11 07:54:05;;;;;;;76.00;34.50;;;14.30;99.90;;;;;;8275736;28;20958;-78
2021/10/11 07:58:05;;;;;;;72.93;33.43;;;14.40;99.90;;;;;;8277808;28;20420;-78
2021/10/11 08:02:06;;;;;;;55.57;27.70;;;14.50;99.90;;;;;;8274678;28;20177;-79
2021/10/11 08:06:07;;;;;;;49.60;27.47;;;14.60;99.90;;;;;;8273960;28;20233;-77
2021/10/11 08:10:10;;;;;;;48.00;26.77;;;14.70;99.90;;;;;;8275125;28;20416;-79
2021/10/11 08:14:11;;;;;;;47.50;23.33;;;14.90;99.90;;;;;;8271265;28;20491;-76
2021/10/11 08:18:13;;;;;;;50.60;23.73;;;15.10;99.90;;;;;;8289369;28;20933;-77
2021/10/11 08:22:14;;;;;;;46.43;22.90;;;15.30;99.90;;;;;;8271378;28;20499;-77
2021/10/11 08:26:14;;;;;;;41.10;23.50;;;15.50;99.90;;;;;;8266820;28;20453;-77
2021/10/11 08:30:15;;;;;;;33.63;19.10;;;15.80;99.90;;;;;;8258514;28;20195;-82
2021/10/11 08:34:15;;;;;;;49.33;20.40;;;16.10;99.90;;;;;;8290348;28;20726;-76
2021/10/11 08:48:10;;;;;;;37.27;20.37;;;16.50;97.90;;;;;;8261749;28;20523;-77
2021/10/11 08:52:12;;;;;;;35.27;17.40;;;16.50;97.50;;;;;;8271196;28;20529;-77
2021/10/11 08:56:13;;;;;;;31.67;16.73;;;16.50;97.90;;;;;;8269681;28;20526;-77
2021/10/11 09:00:22;;;;;;;35.00;16.53;;;16.70;97.70;;;;;;8261091;28;20463;-77
2021/10/11 09:04:23;;;;;;;28.10;16.30;;;16.90;97.40;;;;;;8254134;28;20270;-77
2021/10/11 09:08:23;;;;;;;32.97;16.43;;;17.10;96.90;;;;;;8237705;28;20428;-77
2021/10/11 09:12:29;;;;;;;27.70;15.53;;;17.00;96.10;;;;;;8263280;28;20199;-77
2021/10/11 09:16:34;;;;;;;31.73;15.07;;;17.10;96.20;;;;;;8265064;28;20685;-77
2021/10/11 09:20:39;;;;;;;29.73;16.00;;;17.20;95.60;;;;;;8266354;28;20505;-77
2021/10/11 09:24:40;;;;;;;33.30;18.47;;;17.50;95.30;;;;;;8265139;28;20860;-77
2021/10/11 09:28:55;;;;;;;25.60;15.63;;;17.80;94.70;;;;;;8259511;28;20441;-79
2021/10/11 09:33:10;;;;;;;23.10;14.50;;;18.10;94.20;;;;;;8253843;28;20677;-77
2021/10/11 09:37:13;;;;;;;22.63;15.03;;;18.20;93.10;;;;;;8238175;28;20437;-77
2021/10/11 09:41:18;;;;;;;17.30;11.90;;;18.30;92.80;;;;;;8238073;28;20946;-77
2021/10/11 09:45:25;;;;;;;27.83;11.50;;;18.30;92.80;;;;;;8265917;28;20447;-77
2021/10/11 09:49:26;;;;;;;16.70;10.33;;;18.30;93.00;;;;;;8259125;28;20437;-77
2021/10/11 09:53:28;;;;;;;10.13;6.70;;;18.20;93.00;;;;;;8244498;28;20568;-77
2021/10/11 09:57:31;;;;;;;15.73;6.00;;;18.00;92.80;;;;;;8263415;28;20535;-77
2021/10/11 10:01:31;;;;;;;10.27;5.90;;;17.90;92.50;;;;;;8265181;28;20440;-77
2021/10/11 10:05:36;;;;;;;8.43;5.17;;;18.10;92.50;;;;;;8266421;28;20894;-77
2021/10/11 10:09:47;;;;;;;15.63;5.70;;;18.20;92.60;;;;;;8263041;28;20189;-77
2021/10/11 10:13:49;;;;;;;14.40;5.10;;;18.20;91.50;;;;;;8266506;28;20539;-77
2021/10/11 10:18:11;;;;;;;10.90;3.87;;;18.20;90.10;;;;;;8268955;28;20455;-77
2021/10/11 10:22:12;;;;;;;15.03;4.33;;;18.30;90.10;;;;;;8284140;28;20831;-79
2021/10/11 10:26:24;;;;;;;10.60;4.00;;;18.20;90.10;;;;;;8266129;28;20919;-77
2021/10/11 10:30:26;;;;;;;5.37;3.60;;;18.20;89.70;;;;;;8254521;28;20460;-77
2021/10/11 10:34:28;;;;;;;12.20;3.33;;;18.10;89.10;;;;;;8234642;28;20477;-77
2021/10/11 10:38:28;;;;;;;8.47;4.03;;;18.30;89.40;;;;;;8253292;28;20467;-77
2021/10/11 10:42:30;;;;;;;11.70;3.60;;;18.50;88.10;;;;;;8251456;28;20483;-77
2021/10/11 10:46:30;;;;;;;12.03;4.63;;;18.60;87.80;;;;;;8249485;28;20193;-77
2021/10/11 10:50:33;;;;;;;15.43;6.13;;;18.60;87.10;;;;;;8266710;28;20426;-77
2021/10/11 10:54:37;;;;;;;13.20;6.20;;;18.60;87.60;;;;;;8269692;28;20197;-77
2021/10/11 10:58:37;;;;;;;6.97;4.57;;;18.40;87.40;;;;;;8269194;28;20456;-77
2021/10/11 11:02:38;;;;;;;19.27;4.07;;;18.10;86.70;;;;;;8237555;28;20952;-77
2021/10/11 11:06:39;;;;;;;19.07;4.80;;;17.90;87.50;;;;;;8254618;28;20316;-77
2021/10/11 11:10:39;;;;;;;13.57;4.77;;;17.70;88.20;;;;;;8261452;28;20476;-77
2021/10/11 11:14:44;;;;;;;14.40;4.47;;;17.60;88.40;;;;;;8261814;28;20228;-77
2021/10/11 11:18:52;;;;;;;9.13;3.83;;;17.30;89.40;;;;;;8264757;28;20424;-77
2021/10/11 11:22:55;;;;;;;20.47;4.13;;;17.30;90.30;;;;;;8261751;28;20447;-77
2021/10/11 11:26:55;;;;;;;13.70;4.43;;;17.10;90.10;;;;;;8281939;28;20442;-77
2021/10/11 11:31:05;;;;;;;10.10;3.60;;;17.10;90.10;;;;;;8273975;28;20471;-77
2021/10/11 11:35:14;;;;;;;11.07;3.57;;;17.60;90.10;;;;;;8243735;28;20225;-77
2021/10/11 11:39:14;;;;;;;13.33;2.90;;;18.10;86.80;;;;;;8268728;28;20400;-77
2021/10/11 11:43:15;;;;;;;9.07;1.90;;;18.80;86.10;;;;;;8264685;28;20809;-77
2021/10/11 11:47:16;;;;;;;12.70;2.43;;;19.40;82.30;;;;;;8243321;28;20189;-77
2021/10/11 11:51:20;;;;;;;13.63;3.50;;;19.70;81.50;;;;;;8253983;28;20439;-77
2021/10/11 11:55:21;;;;;;;9.40;3.60;;;19.70;81.30;;;;;;8264145;28;20216;-77
2021/10/11 11:59:22;;;;;;;8.97;3.13;;;19.50;81.30;;;;;;8248765;28;20447;-77
2021/10/11 12:03:25;;;;;;;6.47;3.40;;;19.20;80.20;;;;;;8267278;28;20221;-77
2021/10/11 12:07:25;;;;;;;6.10;2.80;;;18.80;81.50;;;;;;8252659;28;20600;-77
2021/10/11 12:11:26;;;;;;;19.40;3.27;;;18.30;82.60;;;;;;8269068;28;20477;-77
2021/10/11 12:15:30;;;;;;;8.60;2.83;;;17.90;83.60;;;;;;8274648;28;20211;-77
2021/10/11 12:19:31;;;;;;;16.03;2.97;;;17.60;84.90;;;;;;8274921;28;20439;-77
2021/10/11 12:23:39;;;;;;;11.17;2.80;;;17.40;86.10;;;;;;8273567;28;20450;-77
2021/10/11 12:27:39;;;;;;;26.03;5.73;;;17.30;87.30;;;;;;8269726;28;20446;-77
2021/10/11 12:31:40;;;;;;;9.03;3.20;;;17.20;87.50;;;;;;8272640;28;20432;-77
2021/10/11 12:35:42;;;;;;;7.63;2.73;;;17.30;88.20;;;;;;8273238;28;20200;-77
2021/10/11 12:39:45;;;;;;;9.50;2.90;;;17.40;88.60;;;;;;8272457;28;20319;-77
2021/10/11 12:43:54;;;;;;;8.00;2.60;;;17.50;88.00;;;;;;8271569;28;20436;-77
2021/10/11 12:48:03;;;;;;;5.80;2.57;;;17.50;87.90;;;;;;8272800;28;20495;-76
2021/10/11 12:52:05;;;;;;;12.90;3.33;;;17.50;88.20;;;;;;8272224;28;20487;-77
2021/10/11 12:56:15;;;;;;;7.60;2.60;;;17.60;87.70;;;;;;8271046;28;20459;-76
2021/10/11 13:00:21;;;;;;;13.80;2.93;;;17.80;86.70;;;;;;8272544;28;20417;-76
2021/10/11 13:04:21;;;;;;;12.93;3.10;;;17.80;85.90;;;;;;8271733;28;20481;-76
2021/10/11 13:08:22;;;;;;;3.67;1.80;;;18.00;86.20;;;;;;8271892;28;20451;-76
2021/10/11 13:12:22;;;;;;;8.67;2.40;;;18.00;84.80;;;;;;8271298;28;20536;-76
2021/10/11 13:16:24;;;;;;;6.50;3.00;;;18.00;84.60;;;;;;8272348;28;20208;-76
2021/10/11 13:20:25;;;;;;;8.40;2.87;;;18.00;85.00;;;;;;8271344;28;20209;-76
2021/10/11 13:24:25;;;;;;;9.60;2.10;;;18.00;84.80;;;;;;8270733;28;20428;-76
2021/10/11 13:28:27;;;;;;;5.33;2.20;;;17.90;84.20;;;;;;8271188;28;20928;-76
2021/10/11 14:28:59;;;;;;;8.47;2.10;;;17.60;86.00;;;;;;8267914;28;20597;-79
2021/10/11 15:59:32;;;;;;;16.43;4.53;;;15.90;91.10;;;;;;8252943;28;20429;-83
2021/10/11 16:07:41;;;;;;;10.70;3.53;;;15.70;91.60;;;;;;8248834;28;20409;-83
2021/10/11 16:11:41;;;;;;;7.67;3.67;;;15.60;91.80;;;;;;8247816;28;20429;-83
2021/10/11 16:15:44;;;;;;;12.13;3.20;;;15.50;92.10;;;;;;8248398;28;20476;-83
2021/10/11 16:19:44;;;;;;;17.87;4.07;;;15.40;92.20;;;;;;8244242;28;20190;-78
2021/10/11 16:23:46;;;;;;;15.03;4.50;;;15.30;92.40;;;;;;8255497;28;20464;-79
2021/10/11 16:27:47;;;;;;;9.10;3.70;;;15.20;92.70;;;;;;8258360;28;20178;-78
2021/10/11 16:31:50;;;;;;;12.10;3.87;;;15.10;92.90;;;;;;8253337;28;20421;-77
2021/10/11 16:35:51;;;;;;;11.10;4.70;;;14.90;93.20;;;;;;8253877;28;20468;-79
2021/10/11 16:39:51;;;;;;;9.57;3.73;;;14.80;93.50;;;;;;8256462;28;20441;-78
2021/10/11 16:43:52;;;;;;;8.07;3.90;;;14.60;93.80;;;;;;8255348;28;20381;-79
2021/10/11 16:47:52;;;;;;;16.77;5.87;;;14.60;94.00;;;;;;8256733;28;20186;-80
2021/10/11 16:51:53;;;;;;;8.20;5.60;;;14.40;94.20;;;;;;8256670;28;20202;-80
2021/10/11 16:55:54;;;;;;;7.93;5.17;;;14.30;94.40;;;;;;8257940;28;20206;-80
2021/10/11 16:59:55;;;;;;;13.40;4.43;;;14.20;94.80;;;;;;8253691;28;20273;-79
2021/10/11 17:03:57;;;;;;;13.23;5.20;;;14.00;95.00;;;;;;8256848;28;20293;-79
2021/10/11 17:07:59;;;;;;;12.90;5.90;;;13.90;95.30;;;;;;8261423;28;20453;-78
2021/10/11 17:11:59;;;;;;;12.30;5.83;;;13.80;95.60;;;;;;8264227;28;20905;-81
2021/10/11 17:16:00;;;;;;;10.20;5.07;;;13.70;95.80;;;;;;8258746;28;20477;-82
2021/10/11 17:20:01;;;;;;;8.50;5.70;;;13.60;96.00;;;;;;8256781;28;20244;-81
2021/10/11 17:24:02;;;;;;;18.63;5.87;;;13.60;96.30;;;;;;8253980;28;20257;-82
2021/10/11 17:28:03;;;;;;;13.63;6.47;;;13.50;96.50;;;;;;8255789;28;20196;-82
2021/10/11 17:32:05;;;;;;;7.47;5.40;;;13.40;96.70;;;;;;8258504;28;20421;-82
2021/10/11 17:36:06;;;;;;;17.03;6.33;;;13.40;96.90;;;;;;8259179;28;20692;-80
2021/10/11 17:40:09;;;;;;;13.80;7.57;;;13.30;97.00;;;;;;8257226;28;20418;-79
2021/10/11 17:44:09;;;;;;;10.43;5.80;;;13.30;97.10;;;;;;8257394;28;20434;-81
2021/10/11 17:48:10;;;;;;;8.07;5.70;;;13.30;97.20;;;;;;8262729;28;20846;-80
2021/10/11 17:52:14;;;;;;;14.50;6.93;;;13.30;97.30;;;;;;8258214;28;20285;-82
2021/10/11 17:56:15;;;;;;;17.93;7.90;;;13.40;97.40;;;;;;8255331;28;20217;-80
2021/10/11 18:00:16;;;;;;;23.80;7.00;;;13.50;97.40;;;;;;8253676;28;20494;-81
2021/10/11 18:04:19;;;;;;;12.03;7.40;;;13.60;97.60;;;;;;8253635;28;20504;-81
2021/10/11 18:08:20;;;;;;;14.07;6.87;;;13.70;97.20;;;;;;8253524;28;20424;-81
2021/10/11 18:12:20;;;;;;;20.83;6.73;;;13.80;97.10;;;;;;8252074;28;20445;-80
2021/10/11 18:16:22;;;;;;;17.30;6.20;;;14.00;97.00;;;;;;8256343;28;20471;-80
2021/10/11 18:20:25;;;;;;;8.43;5.30;;;14.10;96.80;;;;;;8260512;28;20178;-78
2021/10/11 18:24:26;;;;;;;14.00;6.90;;;14.10;96.70;;;;;;8261682;28;20432;-79
2021/10/11 18:28:27;;;;;;;13.33;6.73;;;14.10;96.60;;;;;;8260042;28;20448;-81
2021/10/11 18:32:28;;;;;;;8.43;6.30;;;14.10;96.70;;;;;;8254817;28;20533;-82
2021/10/11 18:36:29;;;;;;;17.20;6.13;;;14.10;96.70;;;;;;8253707;28;20500;-82
2021/10/11 18:40:29;;;;;;;13.37;5.93;;;14.10;96.70;;;;;;8256282;28;20189;-80
2021/10/11 18:44:30;;;;;;;20.93;6.60;;;14.10;97.00;;;;;;8257748;28;20177;-80
2021/10/11 18:48:33;;;;;;;6.50;5.30;;;14.10;96.80;;;;;;8253151;28;20207;-81
2021/10/11 18:52:34;;;;;;;14.63;7.00;;;14.10;96.80;;;;;;8250964;28;20178;-81
2021/10/11 18:56:34;;;;;;;21.40;6.50;;;14.10;96.70;;;;;;8248013;28;20880;-79
2021/10/11 19:00:35;;;;;;;7.57;5.70;;;14.20;96.70;;;;;;8247399;28;20204;-79
2021/10/11 19:04:36;;;;;;;17.73;7.00;;;14.20;96.90;;;;;;8250731;28;20231;-78
2021/10/11 19:08:37;;;;;;;11.67;6.00;;;14.20;96.60;;;;;;8252910;28;20635;-78
2021/10/11 19:12:40;;;;;;;19.53;7.87;;;14.20;96.70;;;;;;8252040;28;20611;-79
2021/10/11 19:16:41;;;;;;;10.03;6.60;;;14.20;96.70;;;;;;8250221;28;20461;-78
2021/10/11 19:20:44;;;;;;;13.03;7.60;;;14.20;96.70;;;;;;8249129;28;20425;-78
2021/10/11 19:24:45;;;;;;;14.83;6.83;;;14.20;96.80;;;;;;8256182;28;20661;-79
2021/10/11 19:28:46;;;;;;;16.30;7.80;;;14.10;96.80;;;;;;8260749;28;20512;-78
2021/10/11 19:32:46;;;;;;;19.00;7.90;;;14.10;96.90;;;;;;8259557;28;20174;-78
2021/10/11 19:36:47;;;;;;;14.20;7.43;;;14.10;97.00;;;;;;8256493;28;20205;-79
2021/10/11 19:40:48;;;;;;;15.70;6.80;;;14.10;97.10;;;;;;8257375;28;20174;-79
2021/10/11 19:44:48;;;;;;;15.97;7.60;;;14.00;97.20;;;;;;8253992;28;20224;-79
2021/10/11 19:48:49;;;;;;;16.53;7.60;;;14.00;97.40;;;;;;8255679;28;20182;-79
2021/10/11 19:52:49;;;;;;;16.93;7.67;;;13.90;97.50;;;;;;8283597;28;20180;-78
2021/10/11 19:56:50;;;;;;;19.50;9.90;;;13.90;97.80;;;;;;8293075;28;20268;-79
2021/10/11 20:00:51;;;;;;;12.93;8.67;;;13.90;97.90;;;;;;8292150;28;20683;-78
2021/10/11 20:04:51;;;;;;;14.87;8.57;;;13.80;98.00;;;;;;8271776;28;20226;-79
2021/10/11 20:08:52;;;;;;;14.43;8.83;;;13.80;98.10;;;;;;8317103;28;20191;-79
2021/10/11 20:12:53;;;;;;;14.43;7.60;;;13.80;98.20;;;;;;8320540;28;20550;-79
2021/10/11 20:16:53;;;;;;;22.80;9.80;;;13.70;98.30;;;;;;8320828;28;20178;-79
2021/10/11 20:20:54;;;;;;;21.50;8.97;;;13.70;98.40;;;;;;8265866;28;20482;-79
2021/10/11 20:24:54;;;;;;;24.93;8.20;;;13.60;98.50;;;;;;8284605;28;20192;-80
2021/10/11 20:28:55;;;;;;;23.77;8.73;;;13.60;98.70;;;;;;8290872;28;20173;-79
2021/10/11 20:32:59;;;;;;;13.83;7.83;;;13.40;98.70;;;;;;8288745;28;20184;-78
2021/10/11 20:37:00;;;;;;;20.00;9.00;;;13.40;98.80;;;;;;8289551;28;20235;-79
2021/10/11 20:41:00;;;;;;;21.30;11.00;;;13.30;98.80;;;;;;8291613;28;20436;-78
2021/10/11 20:45:01;;;;;;;23.37;9.17;;;13.20;98.90;;;;;;8296312;28;20418;-77
2021/10/11 20:49:03;;;;;;;13.77;9.00;;;13.20;99.00;;;;;;8307876;28;20303;-78
2021/10/11 20:53:04;;;;;;;15.33;9.53;;;13.10;99.10;;;;;;8289524;28;20190;-79
2021/10/11 20:57:04;;;;;;;25.07;10.10;;;13.10;99.20;;;;;;8290031;28;20468;-79
2021/10/11 21:01:05;;;;;;;22.60;8.83;;;13.10;99.20;;;;;;8287937;28;20171;-79
2021/10/11 21:05:07;;;;;;;15.57;7.80;;;13.10;99.30;;;;;;8288281;28;20227;-78
2021/10/11 21:09:08;;;;;;;20.40;8.57;;;13.10;99.30;;;;;;8288738;28;20214;-78
2021/10/11 21:13:09;;;;;;;18.33;7.03;;;13.10;99.20;;;;;;8292814;28;20525;-77
2021/10/11 21:17:10;;;;;;;17.57;7.53;;;13.20;99.10;;;;;;8287698;28;20776;-79
2021/10/11 21:21:10;;;;;;;23.37;8.70;;;13.20;98.90;;;;;;8289127;28;20497;-78
2021/10/11 21:25:11;;;;;;;16.70;8.40;;;13.20;98.70;;;;;;8290671;28;20441;-79
2021/10/11 21:29:12;;;;;;;16.40;7.87;;;13.20;98.70;;;;;;8313213;28;20192;-79
2021/10/11 21:33:13;;;;;;;15.13;7.60;;;13.20;98.70;;;;;;8288276;28;20816;-79
2021/10/11 21:37:14;;;;;;;28.33;8.67;;;13.20;98.70;;;;;;8286925;28;20191;-79
2021/10/11 21:41:15;;;;;;;14.33;6.77;;;13.20;98.60;;;;;;8286537;28;20184;-80
2021/10/11 21:45:16;;;;;;;12.70;7.50;;;13.10;98.50;;;;;;8292817;28;20414;-79
2021/10/11 21:49:17;;;;;;;15.13;6.70;;;13.00;98.60;;;;;;8298244;28;20466;-80
2021/10/11 21:53:18;;;;;;;13.20;8.63;;;13.00;98.70;;;;;;8299142;28;20218;-79
2021/10/11 21:57:23;;;;;;;14.30;9.30;;;12.90;98.80;;;;;;8292913;28;20216;-79
2021/10/11 22:01:24;;;;;;;10.90;5.97;;;12.90;99.00;;;;;;8295264;28;20172;-79
2021/10/11 22:05:25;;;;;;;10.87;6.40;;;12.90;99.00;;;;;;8289217;28;20459;-78
2021/10/11 22:09:26;;;;;;;11.77;6.50;;;12.90;99.00;;;;;;8289209;28;20209;-80
2021/10/11 22:13:28;;;;;;;22.10;9.00;;;13.00;99.00;;;;;;8293091;28;20467;-78
2021/10/11 22:17:29;;;;;;;17.43;6.47;;;13.00;98.90;;;;;;8292542;28;20663;-76
2021/10/11 22:21:29;;;;;;;18.50;6.97;;;13.00;98.80;;;;;;8292217;28;20499;-79
2021/10/11 22:25:30;;;;;;;13.63;6.03;;;13.10;98.80;;;;;;8294409;28;20230;-79
2021/10/11 22:29:31;;;;;;;11.80;5.93;;;13.10;98.80;;;;;;8290841;28;20191;-79
2021/10/11 22:33:31;;;;;;;11.97;5.80;;;13.10;98.80;;;;;;8288674;28;20207;-79
2021/10/11 22:37:32;;;;;;;11.53;5.50;;;13.10;98.80;;;;;;8290020;28;20191;-78
2021/10/11 22:41:32;;;;;;;21.23;5.07;;;13.10;98.80;;;;;;8283962;28;20297;-78
2021/10/11 22:45:33;;;;;;;12.80;4.83;;;13.00;98.80;;;;;;8291884;28;20227;-79
2021/10/11 22:49:34;;;;;;;12.67;5.83;;;13.00;98.90;;;;;;8293407;28;20174;-80
2021/10/11 22:53:35;;;;;;;8.37;5.27;;;13.10;98.90;;;;;;8292459;28;20200;-79
2021/10/11 22:57:36;;;;;;;13.70;5.90;;;13.00;98.90;;;;;;8289424;28;20177;-78
2021/10/11 23:01:36;;;;;;;22.90;5.77;;;13.10;98.90;;;;;;8299307;28;20184;-79
2021/10/11 23:05:37;;;;;;;12.13;5.30;;;13.10;98.90;;;;;;8293688;28;20223;-79